Time;durP1;ratioP1;P1;durP2;ratioP2;P2;SDS_P1;SDS_P2;PMS_P1;PMS_P2;Temp;Humidity;BMP_temperature;BMP_pressure;BME280_temperature;BME280_humidity;BME280_pressure;Samples;Min_cycle;Max_cycle;Signal;HPM_P1;HPM_P2
2023/05/31 00:01:15;;;;;;;4.00;3.47;;;15.20;99.90;;;;;;5118562;27;20232;-76
2023/05/31 00:03:43;;;;;;;3.83;3.45;;;15.20;99.90;;;;;;5118982;27;20479;-76
2023/05/31 00:06:10;;;;;;;4.10;3.70;;;15.30;99.90;;;;;;5121817;27;20211;-77
2023/05/31 00:08:40;;;;;;;4.43;3.92;;;15.30;99.90;;;;;;5120803;27;20224;-78
2023/05/31 00:11:07;;;;;;;3.60;3.30;;;15.40;99.90;;;;;;5120334;27;20230;-76
2023/05/31 00:13:34;;;;;;;3.75;3.45;;;15.30;99.90;;;;;;5118432;27;20235;-76
2023/05/31 00:16:01;;;;;;;3.60;3.30;;;15.40;99.90;;;;;;5117858;27;20276;-77
2023/05/31 00:18:28;;;;;;;4.00;3.60;;;15.40;99.90;;;;;;5119907;27;20216;-76
2023/05/31 00:20:55;;;;;;;3.53;3.22;;;15.40;99.90;;;;;;5113025;27;20200;-76
2023/05/31 00:23:22;;;;;;;3.97;3.22;;;15.50;99.90;;;;;;5118690;27;21292;-75
2023/05/31 00:25:50;;;;;;;3.60;3.30;;;15.50;99.90;;;;;;5116327;27;20286;-76
2023/05/31 00:28:17;;;;;;;4.25;3.95;;;15.60;99.90;;;;;;5119195;27;20339;-75
2023/05/31 00:30:44;;;;;;;4.07;3.63;;;15.50;99.90;;;;;;5117692;27;20824;-75
2023/05/31 00:33:12;;;;;;;3.67;3.38;;;15.50;99.90;;;;;;5117906;27;20200;-76
2023/05/31 00:35:39;;;;;;;4.15;3.40;;;15.50;99.90;;;;;;5115986;27;20336;-77
2023/05/31 00:38:07;;;;;;;3.45;3.15;;;15.50;99.90;;;;;;5114386;27;20239;-76
2023/05/31 00:40:35;;;;;;;4.03;3.63;;;15.50;99.90;;;;;;5116629;27;20205;-74
2023/05/31 00:43:03;;;;;;;3.78;3.47;;;15.50;99.90;;;;;;5119956;27;20315;-76
2023/05/31 00:45:31;;;;;;;3.90;3.60;;;15.50;99.90;;;;;;5116046;27;20283;-74
2023/05/31 00:48:01;;;;;;;3.83;3.42;;;15.50;99.90;;;;;;5115177;27;21014;-76
2023/05/31 00:50:28;;;;;;;3.42;3.13;;;15.50;99.90;;;;;;5120607;27;20199;-75
2023/05/31 00:52:56;;;;;;;3.45;3.15;;;15.50;99.90;;;;;;5117558;27;20224;-75
2023/05/31 00:55:24;;;;;;;3.35;3.00;;;15.50;99.90;;;;;;5120133;27;20204;-75
2023/05/31 00:57:51;;;;;;;3.30;3.00;;;15.50;99.90;;;;;;5115186;27;20323;-75
2023/05/31 01:00:20;;;;;;;3.30;3.10;;;15.50;99.90;;;;;;5115215;27;20243;-76
2023/05/31 01:02:50;;;;;;;3.35;3.05;;;15.40;99.90;;;;;;5114723;27;20189;-75
2023/05/31 01:05:17;;;;;;;3.50;3.20;;;15.40;99.90;;;;;;5120448;27;20239;-74
2023/05/31 01:07:45;;;;;;;3.45;3.15;;;15.40;99.90;;;;;;5116680;27;20209;-75
2023/05/31 01:10:13;;;;;;;3.40;3.10;;;15.40;99.90;;;;;;5117183;27;20639;-77
2023/05/31 01:12:53;;;;;;;3.75;3.35;;;15.40;99.90;;;;;;5117964;27;20291;-76
2023/05/31 01:15:25;;;;;;;3.05;2.85;;;15.30;99.90;;;;;;5121987;27;20279;-75
2023/05/31 01:18:00;;;;;;;2.95;2.75;;;15.20;99.90;;;;;;5117029;27;20925;-76
2023/05/31 01:20:31;;;;;;;3.47;3.17;;;15.20;99.90;;;;;;5114190;27;20701;-75
2023/05/31 01:23:23;;;;;;;3.65;3.35;;;15.20;99.90;;;;;;5114383;27;20743;-76
2023/05/31 01:26:17;;;;;;;3.58;3.28;;;15.10;99.90;;;;;;5114467;27;20196;-77
2023/05/31 01:28:50;;;;;;;4.43;4.03;;;15.00;99.90;;;;;;5117933;27;20225;-75
2023/05/31 01:31:21;;;;;;;3.63;3.33;;;15.00;99.90;;;;;;5115762;27;20230;-76
2023/05/31 01:33:49;;;;;;;5.30;4.20;;;14.90;99.90;;;;;;5115015;27;20722;-75
2023/05/31 01:36:16;;;;;;;4.05;3.65;;;14.90;99.90;;;;;;5113784;27;20246;-75
2023/05/31 01:38:43;;;;;;;3.97;3.50;;;14.90;99.90;;;;;;5119387;27;20255;-75
2023/05/31 01:41:13;;;;;;;3.63;3.33;;;14.90;99.90;;;;;;5112737;27;20312;-75
2023/05/31 01:43:43;;;;;;;3.55;3.25;;;15.00;99.90;;;;;;5117468;27;20231;-76
2023/05/31 01:46:13;;;;;;;3.15;2.95;;;15.00;99.90;;;;;;5116832;27;20200;-75
2023/05/31 01:48:41;;;;;;;2.80;2.60;;;15.10;99.90;;;;;;5114282;27;20330;-79
2023/05/31 01:51:11;;;;;;;3.60;3.30;;;15.10;99.90;;;;;;5112297;27;20950;-77
2023/05/31 01:53:38;;;;;;;3.45;3.15;;;15.20;99.90;;;;;;5121541;27;20210;-78
2023/05/31 01:56:06;;;;;;;3.92;3.53;;;15.20;99.90;;;;;;5118307;27;20842;-76
2023/05/31 01:58:35;;;;;;;3.20;3.00;;;15.10;99.90;;;;;;5115407;27;20224;-76
2023/05/31 02:01:02;;;;;;;3.15;2.92;;;15.10;99.90;;;;;;5118516;27;20220;-75
2023/05/31 02:03:31;;;;;;;3.47;3.20;;;15.10;99.90;;;;;;5119921;27;20832;-75
2023/05/31 02:05:58;;;;;;;3.35;3.08;;;15.10;99.90;;;;;;5115404;27;20289;-76
2023/05/31 02:08:26;;;;;;;4.40;4.00;;;15.10;99.90;;;;;;5116933;27;20490;-75
2023/05/31 02:10:53;;;;;;;3.88;3.58;;;15.10;99.90;;;;;;5112346;27;20203;-76
2023/05/31 02:13:21;;;;;;;4.53;4.00;;;15.00;99.90;;;;;;5115798;27;20192;-77
2023/05/31 02:15:48;;;;;;;4.70;4.30;;;14.90;99.90;;;;;;5112230;27;20250;-75
2023/05/31 02:18:16;;;;;;;4.57;4.18;;;14.80;99.90;;;;;;5118871;27;20216;-75
2023/05/31 02:20:45;;;;;;;3.80;3.50;;;14.90;99.90;;;;;;5117975;27;20215;-79
2023/05/31 02:23:12;;;;;;;3.97;3.58;;;14.90;99.90;;;;;;5114363;27;20615;-77
2023/05/31 02:25:38;;;;;;;4.57;3.83;;;15.00;99.90;;;;;;5113146;27;20618;-77
2023/05/31 02:28:05;;;;;;;3.75;3.45;;;15.00;99.90;;;;;;5115542;27;20311;-77
2023/05/31 02:30:35;;;;;;;4.05;3.63;;;15.00;99.90;;;;;;5114754;27;20285;-76
2023/05/31 02:33:03;;;;;;;3.78;3.47;;;15.00;99.90;;;;;;5117383;27;20253;-78
2023/05/31 02:35:30;;;;;;;3.85;3.45;;;15.10;99.90;;;;;;5114423;27;20823;-80
2023/05/31 02:37:58;;;;;;;4.15;3.75;;;15.10;99.90;;;;;;5120540;27;20223;-78
2023/05/31 02:40:25;;;;;;;3.80;3.50;;;15.10;99.90;;;;;;5116104;27;20228;-76
2023/05/31 02:42:52;;;;;;;4.32;3.92;;;15.30;99.90;;;;;;5119070;27;20253;-78
2023/05/31 02:45:19;;;;;;;3.70;3.38;;;15.50;99.90;;;;;;5116585;27;20232;-77
2023/05/31 02:47:46;;;;;;;4.93;4.07;;;15.60;99.90;;;;;;5117413;27;20216;-76
2023/05/31 02:50:13;;;;;;;3.58;3.28;;;15.80;99.90;;;;;;5113258;27;20281;-75
2023/05/31 02:52:40;;;;;;;3.97;3.35;;;15.90;99.90;;;;;;5113108;27;20779;-76
2023/05/31 02:55:09;;;;;;;4.10;3.70;;;16.00;99.90;;;;;;5113062;27;20192;-75
2023/05/31 02:57:36;;;;;;;3.88;3.50;;;16.10;99.90;;;;;;5113364;27;20213;-76
2023/05/31 03:00:10;;;;;;;4.60;3.63;;;16.10;99.90;;;;;;5114623;27;20303;-78
2023/05/31 03:02:38;;;;;;;4.10;3.72;;;16.10;99.90;;;;;;5113187;28;20204;-78
2023/05/31 03:05:05;;;;;;;3.75;3.45;;;16.20;99.90;;;;;;5120541;27;20208;-77
2023/05/31 03:07:32;;;;;;;3.90;3.50;;;16.20;99.90;;;;;;5111261;27;20212;-76
2023/05/31 03:09:59;;;;;;;4.03;3.55;;;16.20;99.90;;;;;;5115031;27;20798;-77
2023/05/31 03:12:28;;;;;;;4.07;3.67;;;16.20;99.90;;;;;;5115930;28;20229;-75
2023/05/31 03:14:55;;;;;;;3.38;3.08;;;16.10;99.90;;;;;;5114577;28;20630;-75
2023/05/31 03:17:22;;;;;;;3.60;3.30;;;16.10;99.90;;;;;;5112717;27;20220;-76
2023/05/31 03:19:49;;;;;;;4.50;3.55;;;16.20;99.90;;;;;;5118674;27;20211;-75
2023/05/31 03:22:16;;;;;;;3.97;3.60;;;16.20;99.90;;;;;;5117415;27;20303;-75
2023/05/31 03:24:43;;;;;;;4.03;3.65;;;16.20;99.90;;;;;;5117780;27;20841;-78
2023/05/31 03:27:10;;;;;;;3.50;3.20;;;16.10;99.90;;;;;;5118596;27;20282;-76
2023/05/31 03:29:41;;;;;;;3.80;3.50;;;16.10;99.90;;;;;;5121538;27;20284;-75
2023/05/31 03:32:08;;;;;;;3.45;3.15;;;16.10;99.90;;;;;;5118901;27;20200;-77
2023/05/31 03:34:35;;;;;;;3.70;3.38;;;16.10;99.90;;;;;;5120393;27;20205;-77
2023/05/31 03:37:03;;;;;;;3.40;3.10;;;16.10;99.90;;;;;;5120473;27;20220;-76
2023/05/31 03:39:30;;;;;;;3.60;3.28;;;16.10;99.90;;;;;;5118339;27;20212;-76
2023/05/31 03:41:57;;;;;;;4.00;3.70;;;16.10;99.90;;;;;;5119048;27;20204;-76
2023/05/31 03:44:23;;;;;;;5.25;3.80;;;16.30;99.90;;;;;;5115337;27;20287;-77
2023/05/31 03:46:52;;;;;;;4.63;3.70;;;16.30;99.90;;;;;;5123332;27;20216;-75
2023/05/31 03:49:19;;;;;;;3.75;3.45;;;16.40;99.90;;;;;;5121050;27;20283;-75
2023/05/31 03:51:46;;;;;;;3.30;3.00;;;16.30;99.90;;;;;;5118496;27;20240;-75
2023/05/31 03:54:13;;;;;;;3.55;3.25;;;16.40;99.90;;;;;;5122240;27;20200;-76
2023/05/31 03:56:40;;;;;;;3.92;3.63;;;16.30;99.90;;;;;;5118210;27;20205;-76
2023/05/31 03:59:07;;;;;;;3.63;3.33;;;16.30;99.90;;;;;;5115681;27;20616;-76
2023/05/31 04:01:34;;;;;;;3.75;3.45;;;16.30;99.90;;;;;;5114685;27;20671;-75
2023/05/31 04:04:02;;;;;;;3.50;3.20;;;16.20;99.90;;;;;;5123357;27;20723;-77
2023/05/31 04:06:29;;;;;;;3.72;3.35;;;16.20;99.90;;;;;;5117668;27;20773;-75
2023/05/31 04:08:56;;;;;;;3.83;3.45;;;16.30;99.90;;;;;;5118010;27;20274;-77
2023/05/31 04:11:23;;;;;;;3.50;3.20;;;16.40;99.90;;;;;;5120156;27;20287;-77
2023/05/31 04:13:50;;;;;;;5.50;3.85;;;16.40;99.90;;;;;;5118176;27;20193;-75
2023/05/31 04:16:17;;;;;;;4.03;3.67;;;16.40;99.90;;;;;;5119656;27;20204;-74
2023/05/31 04:18:44;;;;;;;3.72;3.42;;;16.40;99.90;;;;;;5120986;27;20216;-75
2023/05/31 04:21:12;;;;;;;3.70;3.38;;;16.40;99.90;;;;;;5122767;27;20200;-76
2023/05/31 04:23:39;;;;;;;3.97;3.60;;;16.40;99.90;;;;;;5112833;27;20197;-75
2023/05/31 04:26:06;;;;;;;4.10;3.72;;;16.40;99.90;;;;;;5117362;27;20790;-76
2023/05/31 04:28:34;;;;;;;4.40;3.55;;;16.40;99.90;;;;;;5118292;27;20246;-77
2023/05/31 04:31:01;;;;;;;3.80;3.40;;;16.40;99.90;;;;;;5119763;27;20197;-76
2023/05/31 04:33:29;;;;;;;3.70;3.30;;;16.40;99.90;;;;;;5117141;27;20573;-76
2023/05/31 04:35:57;;;;;;;4.70;3.85;;;16.50;99.90;;;;;;5118915;27;20642;-75
2023/05/31 04:38:27;;;;;;;3.67;3.38;;;16.50;99.90;;;;;;5121994;27;20220;-75
2023/05/31 04:40:55;;;;;;;4.28;3.88;;;16.50;99.90;;;;;;5113232;27;20545;-75
2023/05/31 04:43:22;;;;;;;3.90;3.60;;;16.40;99.90;;;;;;5115618;27;20223;-75
2023/05/31 04:45:50;;;;;;;3.75;3.42;;;16.40;99.90;;;;;;5117610;27;20280;-75
2023/05/31 04:48:19;;;;;;;3.47;3.17;;;16.30;99.90;;;;;;5118918;27;20227;-76
2023/05/31 04:50:46;;;;;;;3.65;3.35;;;16.20;99.90;;;;;;5117117;27;20199;-73
2023/05/31 04:53:13;;;;;;;4.70;3.63;;;16.30;99.90;;;;;;5118985;27;20227;-76
2023/05/31 04:55:42;;;;;;;3.47;3.17;;;16.30;99.90;;;;;;5115472;27;20608;-76
2023/05/31 04:58:09;;;;;;;3.42;3.13;;;16.40;99.90;;;;;;5119004;27;20256;-75
2023/05/31 05:00:37;;;;;;;3.38;3.08;;;16.50;99.90;;;;;;5117688;27;20217;-76
2023/05/31 05:03:04;;;;;;;3.40;3.10;;;16.60;99.90;;;;;;5118733;27;20650;-76
2023/05/31 05:05:31;;;;;;;5.07;3.40;;;16.60;99.90;;;;;;5111870;27;20197;-76
2023/05/31 05:07:58;;;;;;;4.50;4.07;;;16.70;99.90;;;;;;5116007;27;20221;-75
2023/05/31 05:10:25;;;;;;;3.65;3.35;;;16.70;99.90;;;;;;5121185;27;20232;-75
2023/05/31 05:12:53;;;;;;;3.63;3.33;;;16.80;99.90;;;;;;5118229;27;20349;-78
2023/05/31 05:15:20;;;;;;;4.15;3.28;;;16.90;99.90;;;;;;5119952;27;20287;-76
2023/05/31 05:17:47;;;;;;;4.43;3.63;;;17.00;99.90;;;;;;5117593;27;20265;-76
2023/05/31 05:20:14;;;;;;;3.65;3.35;;;17.10;99.90;;;;;;5118513;27;20220;-76
2023/05/31 05:22:42;;;;;;;3.63;3.33;;;17.10;99.90;;;;;;5114405;27;20265;-76
2023/05/31 05:25:10;;;;;;;4.10;3.70;;;17.20;99.90;;;;;;5115011;27;20593;-76
2023/05/31 05:27:37;;;;;;;3.85;3.35;;;17.30;99.90;;;;;;5114891;27;20584;-76
2023/05/31 05:30:07;;;;;;;4.03;3.72;;;17.30;99.90;;;;;;5118023;27;20197;-76
2023/05/31 05:32:34;;;;;;;3.90;3.60;;;17.30;99.90;;;;;;5117950;27;20200;-76
2023/05/31 05:35:01;;;;;;;5.90;5.18;;;17.30;99.90;;;;;;5118973;27;20235;-76
2023/05/31 05:37:28;;;;;;;4.80;4.30;;;17.10;99.90;;;;;;5118298;27;20213;-75
2023/05/31 05:39:55;;;;;;;6.38;4.53;;;16.90;99.90;;;;;;5115375;27;20236;-75
2023/05/31 05:42:23;;;;;;;4.40;4.00;;;16.70;99.90;;;;;;5112354;27;20209;-75
2023/05/31 05:44:50;;;;;;;4.70;4.30;;;16.80;99.90;;;;;;5115669;27;20204;-75
2023/05/31 05:47:18;;;;;;;4.28;3.95;;;16.80;99.90;;;;;;5113806;27;20363;-76
2023/05/31 05:49:46;;;;;;;4.40;4.00;;;16.90;99.90;;;;;;5120136;27;20794;-75
2023/05/31 05:52:13;;;;;;;4.30;3.92;;;16.90;99.90;;;;;;5120390;27;21178;-75
2023/05/31 05:54:40;;;;;;;4.22;3.83;;;17.10;99.90;;;;;;5117356;27;20225;-78
2023/05/31 05:57:07;;;;;;;4.47;4.07;;;17.20;99.90;;;;;;5117595;27;20208;-77
2023/05/31 05:59:34;;;;;;;4.47;4.07;;;17.30;99.90;;;;;;5116902;27;20259;-75
2023/05/31 06:02:01;;;;;;;4.72;4.30;;;17.40;99.90;;;;;;5122091;27;20204;-76
2023/05/31 06:04:30;;;;;;;4.90;4.20;;;17.30;99.90;;;;;;5113719;27;20245;-77
2023/05/31 06:06:56;;;;;;;4.60;4.20;;;17.10;99.90;;;;;;5116586;27;20265;-77
2023/05/31 06:09:23;;;;;;;4.68;4.22;;;17.10;99.90;;;;;;5115494;27;20196;-76
2023/05/31 06:11:50;;;;;;;3.80;3.50;;;17.20;99.90;;;;;;5113895;27;20192;-75
2023/05/31 06:14:17;;;;;;;3.80;3.50;;;17.40;99.90;;;;;;5116509;27;20239;-76
2023/05/31 06:16:44;;;;;;;3.60;3.30;;;17.60;99.90;;;;;;5115633;27;20200;-76
2023/05/31 06:19:11;;;;;;;4.97;4.40;;;18.00;99.90;;;;;;5114411;27;20705;-75
2023/05/31 06:21:40;;;;;;;4.47;4.00;;;18.50;99.90;;;;;;5117068;27;20232;-76
2023/05/31 06:24:07;;;;;;;4.53;4.13;;;18.90;99.90;;;;;;5115588;27;20224;-76
2023/05/31 06:26:35;;;;;;;4.60;4.20;;;19.10;99.90;;;;;;5117632;27;20224;-75
2023/05/31 06:29:02;;;;;;;4.93;4.47;;;19.30;99.90;;;;;;5114770;27;20189;-75
2023/05/31 06:31:30;;;;;;;4.90;4.40;;;19.10;99.90;;;;;;5113802;27;20565;-75
2023/05/31 06:33:57;;;;;;;5.47;4.88;;;19.00;99.90;;;;;;5116267;27;20197;-75
2023/05/31 06:36:24;;;;;;;4.78;4.18;;;19.00;99.90;;;;;;5115988;27;20193;-75
2023/05/31 06:38:52;;;;;;;4.85;4.35;;;19.00;99.90;;;;;;5111363;27;20239;-74
2023/05/31 06:41:20;;;;;;;4.95;4.45;;;18.90;99.90;;;;;;5124092;27;20843;-76
2023/05/31 06:43:47;;;;;;;4.47;4.07;;;18.80;99.90;;;;;;5118669;27;20193;-75
2023/05/31 06:46:14;;;;;;;5.22;4.72;;;18.80;99.90;;;;;;5133067;27;20249;-77
2023/05/31 06:48:41;;;;;;;4.45;4.05;;;18.90;99.90;;;;;;5129444;27;20348;-75
2023/05/31 06:51:08;;;;;;;4.95;4.03;;;18.90;99.90;;;;;;5123068;27;20283;-74
2023/05/31 06:53:35;;;;;;;4.68;4.07;;;18.90;99.90;;;;;;5110380;27;20927;-74
2023/05/31 06:56:03;;;;;;;3.95;3.55;;;19.00;99.90;;;;;;5108746;27;20284;-75
2023/05/31 06:58:31;;;;;;;4.03;3.63;;;19.20;99.90;;;;;;5112881;27;20284;-75
2023/05/31 07:00:58;;;;;;;4.13;3.72;;;19.20;99.90;;;;;;5110945;27;20217;-74
2023/05/31 07:03:25;;;;;;;5.10;3.67;;;19.30;99.90;;;;;;5113068;28;20192;-75
2023/05/31 07:05:52;;;;;;;4.65;3.88;;;19.30;99.90;;;;;;5107877;27;20662;-74
2023/05/31 07:08:19;;;;;;;4.35;3.80;;;19.40;99.90;;;;;;5110634;27;20215;-75
2023/05/31 07:10:46;;;;;;;4.43;3.80;;;19.40;99.90;;;;;;5111882;28;20674;-75
2023/05/31 07:13:15;;;;;;;4.60;4.18;;;19.60;99.90;;;;;;5111135;28;20236;-75
2023/05/31 07:15:41;;;;;;;4.32;3.90;;;19.70;99.90;;;;;;5110661;28;20758;-75
2023/05/31 07:18:08;;;;;;;3.85;3.55;;;19.80;99.90;;;;;;5111995;27;20252;-75
2023/05/31 07:20:35;;;;;;;4.63;4.15;;;19.80;99.90;;;;;;5110063;27;20300;-75
2023/05/31 07:23:02;;;;;;;4.47;4.05;;;20.00;99.90;;;;;;5111894;28;20846;-74
2023/05/31 07:25:29;;;;;;;4.70;4.30;;;20.10;99.90;;;;;;5111162;27;20223;-75
2023/05/31 07:27:56;;;;;;;5.90;4.50;;;20.00;99.90;;;;;;5118602;27;20701;-75
2023/05/31 07:30:25;;;;;;;4.82;4.43;;;19.90;99.90;;;;;;5111830;27;20227;-75
2023/05/31 07:32:52;;;;;;;4.25;3.85;;;20.00;99.90;;;;;;5110848;28;20200;-74
2023/05/31 07:35:19;;;;;;;4.55;4.15;;;20.00;99.90;;;;;;5114640;28;20291;-75
2023/05/31 07:37:46;;;;;;;5.88;4.28;;;20.10;99.90;;;;;;5113387;28;20256;-75
2023/05/31 07:40:15;;;;;;;4.30;3.90;;;20.30;99.90;;;;;;5114060;28;20644;-75
2023/05/31 07:42:43;;;;;;;4.32;3.80;;;20.30;99.90;;;;;;5115518;28;20200;-74
2023/05/31 07:45:11;;;;;;;4.65;4.25;;;20.40;99.90;;;;;;5115003;28;20364;-75
2023/05/31 07:47:39;;;;;;;4.25;3.95;;;20.40;99.90;;;;;;5121389;28;20225;-75
2023/05/31 07:50:08;;;;;;;4.32;3.92;;;20.40;99.90;;;;;;5114719;28;20220;-74
2023/05/31 07:52:35;;;;;;;4.40;4.00;;;20.60;99.90;;;;;;5115161;28;20208;-74
2023/05/31 07:55:02;;;;;;;4.53;3.72;;;20.80;99.90;;;;;;5109589;28;20224;-75
2023/05/31 07:57:29;;;;;;;4.68;4.28;;;20.90;99.90;;;;;;5116783;27;20255;-75
2023/05/31 07:59:56;;;;;;;4.40;4.00;;;21.00;99.90;;;;;;5110937;28;20216;-75
2023/05/31 08:02:23;;;;;;;4.78;4.28;;;21.00;99.90;;;;;;5111689;27;20224;-75
2023/05/31 08:04:51;;;;;;;4.78;4.38;;;20.90;99.90;;;;;;5117155;28;20235;-74
2023/05/31 08:07:18;;;;;;;4.28;3.85;;;21.00;99.90;;;;;;5115361;27;20259;-75
2023/05/31 08:09:47;;;;;;;4.28;3.88;;;21.20;99.90;;;;;;5116525;27;20204;-75
2023/05/31 08:12:14;;;;;;;6.85;4.55;;;21.40;99.90;;;;;;5119941;27;20769;-74
2023/05/31 08:14:41;;;;;;;4.68;4.18;;;21.50;99.90;;;;;;5118280;27;20204;-74
2023/05/31 08:17:08;;;;;;;4.90;4.28;;;21.60;99.90;;;;;;5118483;27;20853;-75
2023/05/31 08:19:34;;;;;;;8.60;4.43;;;21.40;99.90;;;;;;5113542;27;20247;-75
2023/05/31 08:22:04;;;;;;;4.78;4.22;;;21.40;99.90;;;;;;5116073;27;20663;-73
2023/05/31 08:24:31;;;;;;;5.90;3.90;;;21.60;99.90;;;;;;5116151;27;20815;-76
2023/05/31 08:26:58;;;;;;;6.43;4.70;;;21.80;99.90;;;;;;5118161;27;20249;-76
2023/05/31 08:29:25;;;;;;;4.75;4.25;;;22.00;99.90;;;;;;5117590;27;20741;-74
2023/05/31 08:31:52;;;;;;;4.60;4.20;;;22.10;99.90;;;;;;5114387;27;20212;-75
2023/05/31 08:34:19;;;;;;;4.93;4.43;;;22.10;99.90;;;;;;5117646;27;20859;-76
2023/05/31 08:36:47;;;;;;;6.55;4.22;;;22.10;99.90;;;;;;5139416;27;20215;-75
2023/05/31 08:39:15;;;;;;;4.63;4.22;;;22.20;99.90;;;;;;5114821;27;20201;-75
2023/05/31 08:41:52;;;;;;;4.85;4.35;;;22.20;99.90;;;;;;5118428;27;20225;-75
2023/05/31 08:44:20;;;;;;;4.30;3.90;;;22.40;99.90;;;;;;5126298;27;20253;-75
2023/05/31 08:46:49;;;;;;;4.63;4.20;;;22.50;99.90;;;;;;5122776;27;20204;-75
2023/05/31 08:49:16;;;;;;;5.10;4.20;;;22.50;99.90;;;;;;5118171;27;20192;-75
2023/05/31 08:51:46;;;;;;;4.20;3.80;;;22.50;99.90;;;;;;5121163;27;20192;-75
2023/05/31 08:54:15;;;;;;;4.97;4.03;;;22.50;99.90;;;;;;5117258;27;20208;-75
2023/05/31 08:56:42;;;;;;;4.18;3.80;;;22.40;99.90;;;;;;5119010;27;20734;-74
2023/05/31 08:59:11;;;;;;;4.70;4.30;;;22.30;99.90;;;;;;5120425;27;20244;-74
2023/05/31 09:01:39;;;;;;;4.45;3.97;;;22.10;99.90;;;;;;5120631;27;20216;-74
2023/05/31 09:04:06;;;;;;;4.45;3.75;;;22.10;99.90;;;;;;5119634;27;20199;-75
2023/05/31 09:06:34;;;;;;;3.80;3.50;;;22.00;99.90;;;;;;5118037;27;20649;-74
2023/05/31 09:09:01;;;;;;;6.00;4.43;;;22.00;99.90;;;;;;5117850;27;20403;-75
2023/05/31 09:11:29;;;;;;;4.07;3.67;;;21.80;99.90;;;;;;5120842;27;20621;-75
2023/05/31 09:13:56;;;;;;;4.43;4.03;;;21.80;99.90;;;;;;5120270;27;20204;-75
2023/05/31 09:16:24;;;;;;;4.32;3.92;;;21.80;99.90;;;;;;5119514;27;20279;-75
2023/05/31 09:19:00;;;;;;;4.45;4.05;;;22.00;99.90;;;;;;5118716;27;20223;-75
2023/05/31 09:21:27;;;;;;;4.18;3.78;;;22.20;99.90;;;;;;5115117;27;20213;-75
2023/05/31 09:23:56;;;;;;;4.35;3.95;;;22.20;99.90;;;;;;5117318;27;20227;-74
2023/05/31 09:26:23;;;;;;;4.30;3.90;;;22.50;99.90;;;;;;5118077;27;20246;-75
2023/05/31 09:28:52;;;;;;;4.20;3.80;;;22.60;99.90;;;;;;5117823;27;20220;-75
2023/05/31 09:31:19;;;;;;;3.83;3.53;;;22.60;99.90;;;;;;5115145;27;20694;-75
2023/05/31 09:33:48;;;;;;;4.53;3.63;;;22.70;99.90;;;;;;5122251;27;20196;-75
2023/05/31 09:36:23;;;;;;;3.55;3.25;;;22.80;99.90;;;;;;5117046;27;20613;-74
2023/05/31 09:38:50;;;;;;;5.30;4.35;;;22.90;99.90;;;;;;5111932;27;20583;-75
2023/05/31 09:41:19;;;;;;;3.65;3.35;;;23.10;99.90;;;;;;5117412;27;20600;-75
2023/05/31 09:43:47;;;;;;;4.13;3.72;;;23.30;99.90;;;;;;5120313;27;20200;-75
2023/05/31 09:46:20;;;;;;;4.60;3.40;;;23.30;99.90;;;;;;5116369;27;20593;-74
2023/05/31 09:48:57;;;;;;;3.60;3.30;;;23.30;99.90;;;;;;5118205;27;20503;-75
2023/05/31 09:51:24;;;;;;;4.28;3.30;;;23.10;99.90;;;;;;5116014;27;20777;-74
2023/05/31 09:53:55;;;;;;;3.80;3.45;;;23.30;99.90;;;;;;5116595;27;20201;-74
2023/05/31 09:56:23;;;;;;;3.50;3.20;;;23.40;99.90;;;;;;5115086;27;20831;-75
2023/05/31 09:58:52;;;;;;;4.18;3.17;;;23.30;99.90;;;;;;5111342;27;20248;-75
2023/05/31 10:01:20;;;;;;;4.15;3.85;;;23.00;99.90;;;;;;5118877;27;20248;-74
2023/05/31 10:03:49;;;;;;;3.83;3.53;;;22.80;99.90;;;;;;5118705;27;20204;-75
2023/05/31 10:06:17;;;;;;;3.58;3.28;;;22.70;99.90;;;;;;5113969;27;20272;-75
2023/05/31 10:08:45;;;;;;;3.55;3.22;;;22.80;99.90;;;;;;5114670;27;20220;-75
2023/05/31 10:11:16;;;;;;;3.42;3.13;;;22.80;99.90;;;;;;5116268;27;20198;-75
2023/05/31 10:13:46;;;;;;;4.00;3.60;;;22.70;99.90;;;;;;5111800;27;20224;-75
2023/05/31 10:16:17;;;;;;;3.67;3.38;;;22.50;99.90;;;;;;5113619;27;20197;-75
2023/05/31 10:18:47;;;;;;;4.05;3.65;;;22.40;99.90;;;;;;5115819;27;20216;-75
2023/05/31 10:21:22;;;;;;;4.22;3.83;;;22.20;99.90;;;;;;5114194;27;20220;-74
2023/05/31 10:23:57;;;;;;;3.88;3.58;;;22.10;99.90;;;;;;5110814;27;20200;-75
2023/05/31 10:26:27;;;;;;;3.95;3.63;;;22.00;99.90;;;;;;5126065;27;20433;-76
2023/05/31 10:28:58;;;;;;;3.90;3.60;;;21.90;99.90;;;;;;5136044;27;20228;-75
2023/05/31 10:31:33;;;;;;;4.47;3.83;;;22.00;99.90;;;;;;5133800;27;20203;-74
2023/05/31 10:34:09;;;;;;;3.63;3.33;;;22.10;99.90;;;;;;5125445;27;20223;-75
2023/05/31 10:36:36;;;;;;;3.50;3.20;;;22.60;99.90;;;;;;5116649;27;20230;-74
2023/05/31 10:39:10;;;;;;;3.83;3.42;;;23.00;99.90;;;;;;5125343;27;20204;-75
2023/05/31 10:41:43;;;;;;;3.78;3.35;;;23.30;99.90;;;;;;5117493;27;20251;-75
2023/05/31 10:44:17;;;;;;;3.47;3.17;;;23.50;99.90;;;;;;5115075;27;20193;-75
2023/05/31 10:46:49;;;;;;;3.47;3.17;;;23.80;99.90;;;;;;5121740;27;20865;-74
2023/05/31 10:49:20;;;;;;;3.47;3.17;;;23.80;99.90;;;;;;5114395;27;20196;-75
2023/05/31 10:51:48;;;;;;;3.40;3.10;;;23.80;99.90;;;;;;5114792;27;20192;-74
2023/05/31 10:54:22;;;;;;;3.72;3.42;;;23.70;99.90;;;;;;5113915;27;20311;-74
2023/05/31 10:59:40;;;;;;;3.15;2.90;;;23.60;99.90;;;;;;5040840;28;20628;-76
2023/05/31 11:02:09;;;;;;;3.22;2.92;;;23.50;99.90;;;;;;5038004;28;20268;-77
2023/05/31 11:04:37;;;;;;;4.05;3.10;;;23.40;99.90;;;;;;5044936;28;20230;-76
2023/05/31 11:07:17;;;;;;;3.72;3.42;;;23.50;99.90;;;;;;5044909;28;20235;-77
2023/05/31 11:09:58;;;;;;;3.83;3.13;;;23.40;99.90;;;;;;5043273;28;20195;-76
2023/05/31 11:12:34;;;;;;;3.80;3.47;;;23.50;99.90;;;;;;5039276;28;20730;-76
2023/05/31 11:15:03;;;;;;;3.53;3.22;;;23.60;99.90;;;;;;5039839;28;20199;-76
2023/05/31 11:17:30;;;;;;;3.65;3.35;;;23.70;99.90;;;;;;5043234;28;20215;-76
2023/05/31 11:19:59;;;;;;;3.53;3.22;;;24.10;99.90;;;;;;5036711;28;20315;-77
2023/05/31 11:22:27;;;;;;;3.50;3.20;;;24.00;99.90;;;;;;5042028;28;20254;-77
2023/05/31 11:24:57;;;;;;;3.10;2.83;;;23.90;99.90;;;;;;5038147;28;20204;-77
2023/05/31 11:27:35;;;;;;;3.38;3.08;;;24.00;99.90;;;;;;5038744;28;20243;-76
2023/05/31 11:30:04;;;;;;;2.90;2.70;;;23.90;99.90;;;;;;5043019;28;20201;-77
2023/05/31 11:32:56;;;;;;;3.08;2.88;;;23.90;99.90;;;;;;5042106;28;20195;-77
2023/05/31 11:35:26;;;;;;;3.60;3.30;;;23.70;99.90;;;;;;5032456;28;20214;-77
2023/05/31 11:38:01;;;;;;;3.67;3.38;;;23.80;99.90;;;;;;5042666;28;20218;-77
2023/05/31 11:40:30;;;;;;;3.83;3.53;;;24.20;99.90;;;;;;5044887;28;20257;-76
2023/05/31 11:43:04;;;;;;;3.92;3.60;;;24.70;99.90;;;;;;5046143;28;20641;-76
2023/05/31 11:45:33;;;;;;;3.58;3.22;;;25.20;99.90;;;;;;5043398;28;20253;-77
2023/05/31 11:48:10;;;;;;;4.35;3.65;;;25.50;99.90;;;;;;5043177;28;20222;-77
2023/05/31 11:50:39;;;;;;;4.63;3.70;;;25.50;99.90;;;;;;5044906;28;20194;-76
2023/05/31 11:53:07;;;;;;;3.78;3.47;;;25.70;99.90;;;;;;5046874;28;20273;-77
2023/05/31 11:55:36;;;;;;;3.60;3.30;;;25.90;99.90;;;;;;5046703;28;20206;-76
2023/05/31 11:58:06;;;;;;;5.00;3.83;;;26.10;99.90;;;;;;5043032;28;20236;-76
2023/05/31 12:00:34;;;;;;;3.70;3.40;;;26.20;99.90;;;;;;5045057;28;20527;-78
2023/05/31 12:03:04;;;;;;;4.25;3.72;;;26.30;99.90;;;;;;5049723;28;20223;-77
2023/05/31 12:05:31;;;;;;;3.70;3.40;;;26.30;99.90;;;;;;5046435;28;20200;-77
2023/05/31 12:07:59;;;;;;;4.90;3.50;;;26.40;99.90;;;;;;5047610;28;20253;-76
2023/05/31 12:10:28;;;;;;;6.00;3.45;;;26.20;99.90;;;;;;5045049;28;20766;-77
2023/05/31 12:12:55;;;;;;;4.00;3.70;;;26.20;99.90;;;;;;5043312;28;20195;-77
2023/05/31 12:15:22;;;;;;;3.42;3.13;;;26.50;99.90;;;;;;5045784;28;20203;-78
2023/05/31 12:17:49;;;;;;;3.33;3.03;;;26.60;99.90;;;;;;5039808;28;20257;-77
2023/05/31 12:20:16;;;;;;;3.90;3.55;;;26.50;99.90;;;;;;5044704;28;20210;-77
2023/05/31 12:22:43;;;;;;;4.03;3.72;;;26.30;99.90;;;;;;5037800;28;20239;-77
2023/05/31 12:25:11;;;;;;;3.92;3.63;;;26.20;99.90;;;;;;5044586;28;20307;-76
2023/05/31 12:27:38;;;;;;;4.13;3.70;;;25.90;99.90;;;;;;5044708;28;20219;-77
2023/05/31 12:30:07;;;;;;;3.50;2.88;;;25.90;99.90;;;;;;5041131;28;20289;-76
2023/05/31 12:32:34;;;;;;;3.92;3.53;;;25.50;99.90;;;;;;5036750;28;20203;-77
2023/05/31 12:35:06;;;;;;;3.47;3.17;;;25.30;99.90;;;;;;5036966;28;20218;-77
2023/05/31 12:37:36;;;;;;;3.20;2.90;;;25.20;99.90;;;;;;5037766;28;20594;-77
2023/05/31 12:40:11;;;;;;;3.45;3.15;;;25.20;99.90;;;;;;5042879;28;20741;-76
2023/05/31 12:42:39;;;;;;;3.60;3.28;;;25.10;99.90;;;;;;5040698;28;20629;-77
2023/05/31 12:45:07;;;;;;;4.53;3.50;;;24.80;99.90;;;;;;5036894;28;20231;-76
2023/05/31 12:47:34;;;;;;;4.30;3.75;;;24.50;99.90;;;;;;5041061;28;20284;-77
2023/05/31 12:50:05;;;;;;;3.72;3.00;;;24.40;99.90;;;;;;5042191;28;20815;-76
2023/05/31 12:52:33;;;;;;;3.97;3.00;;;24.40;99.90;;;;;;5036922;28;20196;-76
2023/05/31 12:55:01;;;;;;;3.42;3.10;;;24.50;99.90;;;;;;5042076;28;20195;-77
2023/05/31 12:57:30;;;;;;;3.50;3.17;;;24.70;99.90;;;;;;5038478;28;20219;-76